Time;durP1;ratioP1;P1;durP2;ratioP2;P2;SDS_P1;SDS_P2;PMS_P1;PMS_P2;Temp;Humidity;BMP_temperature;BMP_pressure;BME280_temperature;BME280_humidity;BME280_pressure;Samples;Min_cycle;Max_cycle;Signal;HPM_P1;HPM_P2
2021/03/05 00:02:23;;;;;;;7.65;4.35;;;2.30;1.00;;;;;;5082612;28;20191;-72
2021/03/05 00:04:50;;;;;;;4.90;3.80;;;2.40;1.00;;;;;;5092992;28;20176;-73
2021/03/05 00:07:17;;;;;;;5.35;3.13;;;2.30;1.00;;;;;;5091949;28;20208;-72
2021/03/05 00:09:45;;;;;;;7.40;4.03;;;2.30;1.00;;;;;;5090780;28;20192;-72
2021/03/05 00:12:13;;;;;;;6.30;3.13;;;2.30;1.00;;;;;;5090029;28;20279;-72
2021/03/05 00:14:42;;;;;;;5.88;2.92;;;2.40;1.00;;;;;;5090234;28;20633;-72
2021/03/05 00:17:10;;;;;;;6.78;2.72;;;2.40;1.00;;;;;;5076562;28;20702;-72
2021/03/05 00:19:39;;;;;;;6.32;4.85;;;2.40;1.00;;;;;;5076068;28;20188;-71
2021/03/05 00:22:06;;;;;;;9.32;6.03;;;2.40;1.00;;;;;;5076968;28;20603;-74
2021/03/05 00:24:34;;;;;;;12.27;4.30;;;2.40;1.00;;;;;;5075588;28;20664;-73
2021/03/05 00:27:02;;;;;;;12.10;4.03;;;2.30;1.00;;;;;;5076607;28;20208;-71
2021/03/05 00:29:33;;;;;;;7.13;5.65;;;2.30;1.00;;;;;;5075529;28;20188;-73
2021/03/05 00:32:01;;;;;;;9.25;3.75;;;2.20;1.00;;;;;;5074227;28;20203;-72
2021/03/05 00:34:29;;;;;;;8.52;4.70;;;2.20;1.00;;;;;;5075544;28;20202;-73
2021/03/05 00:36:57;;;;;;;8.40;5.15;;;2.20;1.00;;;;;;5085723;28;20204;-72
2021/03/05 00:39:24;;;;;;;14.55;5.25;;;2.20;1.00;;;;;;5093861;28;20172;-72
2021/03/05 00:41:51;;;;;;;7.03;4.63;;;2.10;1.00;;;;;;5093314;28;20196;-71
2021/03/05 00:44:18;;;;;;;12.80;5.28;;;2.10;1.00;;;;;;5090369;28;20188;-71
2021/03/05 00:46:45;;;;;;;6.45;4.68;;;2.10;1.00;;;;;;5092213;28;20246;-72
2021/03/05 00:49:13;;;;;;;6.68;3.80;;;2.10;1.00;;;;;;5089855;28;20240;-73
2021/03/05 00:51:42;;;;;;;6.88;4.50;;;2.10;1.00;;;;;;5089105;28;20192;-72
2021/03/05 00:54:11;;;;;;;7.72;5.00;;;2.00;1.00;;;;;;5090432;28;20217;-73
2021/03/05 00:56:39;;;;;;;7.97;4.35;;;2.00;1.00;;;;;;5088263;28;20606;-72
2021/03/05 00:59:06;;;;;;;9.60;5.28;;;2.00;1.00;;;;;;5072574;28;20560;-72
2021/03/05 01:01:34;;;;;;;7.63;5.03;;;2.00;1.00;;;;;;5072173;28;20180;-72
2021/03/05 01:04:01;;;;;;;5.80;4.40;;;1.90;1.00;;;;;;5071905;28;20237;-72
2021/03/05 01:06:37;;;;;;;9.90;5.78;;;2.00;1.00;;;;;;5072228;28;20212;-72
2021/03/05 01:09:11;;;;;;;9.75;2.60;;;2.00;1.00;;;;;;5072901;28;20189;-72
2021/03/05 01:11:38;;;;;;;8.63;3.25;;;1.90;1.00;;;;;;5073328;28;20332;-72
2021/03/05 01:14:06;;;;;;;13.63;6.10;;;1.90;1.00;;;;;;5073643;28;20640;-72
2021/03/05 01:16:33;;;;;;;8.40;6.57;;;2.00;1.00;;;;;;5071702;28;20223;-73
2021/03/05 01:19:01;;;;;;;12.27;4.10;;;1.90;1.00;;;;;;5073051;28;20200;-72
2021/03/05 01:21:28;;;;;;;10.60;4.05;;;1.80;1.00;;;;;;5073401;28;20187;-72
2021/03/05 01:23:55;;;;;;;11.70;5.90;;;1.80;1.00;;;;;;5073977;28;20176;-72
2021/03/05 01:26:23;;;;;;;12.02;7.25;;;1.70;1.00;;;;;;5074015;28;20215;-73
2021/03/05 01:28:50;;;;;;;9.93;6.10;;;1.60;1.00;;;;;;5073122;28;20196;-72
2021/03/05 01:31:17;;;;;;;6.50;3.22;;;1.50;99.90;;;;;;5074246;28;20199;-72
2021/03/05 01:33:45;;;;;;;11.38;5.78;;;1.50;99.90;;;;;;5073984;28;20176;-72
2021/03/05 01:36:16;;;;;;;18.30;5.57;;;1.40;99.90;;;;;;5073890;28;20208;-73
2021/03/05 01:38:43;;;;;;;17.70;5.57;;;1.30;99.90;;;;;;5072584;28;20444;-72
2021/03/05 01:41:10;;;;;;;12.48;4.50;;;1.20;99.90;;;;;;5073216;28;20188;-72
2021/03/05 01:43:40;;;;;;;18.90;6.03;;;1.20;99.90;;;;;;5072630;28;20519;-72
2021/03/05 01:46:09;;;;;;;12.68;4.35;;;1.10;99.90;;;;;;5092405;22;20219;-78
2021/03/05 01:48:39;;;;;;;16.85;5.90;;;1.00;99.90;;;;;;5055292;28;20213;-78
2021/03/05 01:51:12;;;;;;;9.73;6.43;;;1.00;99.90;;;;;;5042450;28;20209;-79
2021/03/05 01:53:41;;;;;;;8.25;6.43;;;0.90;99.90;;;;;;5042580;28;20188;-80
2021/03/05 01:56:11;;;;;;;11.07;3.85;;;0.80;99.90;;;;;;5042159;28;20672;-79
2021/03/05 01:58:41;;;;;;;7.30;4.40;;;0.80;99.90;;;;;;5042771;28;20236;-81
2021/03/05 02:01:10;;;;;;;11.82;6.53;;;0.70;99.90;;;;;;5043703;28;20216;-79
2021/03/05 02:03:39;;;;;;;12.85;7.50;;;0.70;99.90;;;;;;5043167;28;20195;-79
2021/03/05 02:06:08;;;;;;;16.50;5.60;;;0.60;99.90;;;;;;5043198;28;20235;-80
2021/03/05 02:08:37;;;;;;;9.15;7.13;;;0.60;99.90;;;;;;5042826;28;20565;-80
2021/03/05 02:11:05;;;;;;;18.15;4.63;;;0.50;99.90;;;;;;5064886;28;20199;-76
2021/03/05 02:13:34;;;;;;;18.95;6.00;;;0.50;99.90;;;;;;5046161;28;20196;-79
2021/03/05 02:16:12;;;;;;;11.98;7.60;;;0.40;99.90;;;;;;5043073;28;20195;-79
2021/03/05 02:18:46;;;;;;;26.88;7.90;;;0.40;99.90;;;;;;5060586;28;20294;-79
2021/03/05 02:21:41;;;;;;;21.30;8.18;;;0.30;99.90;;;;;;5041616;28;20207;-79
2021/03/05 02:24:49;;;;;;;18.65;4.45;;;0.30;99.90;;;;;;5061247;28;20219;-79
2021/03/05 02:27:42;;;;;;;7.97;6.07;;;0.20;99.90;;;;;;5065447;28;20227;-78
2021/03/05 02:31:05;;;;;;;26.73;5.28;;;0.20;99.90;;;;;;5067586;28;20215;-78
2021/03/05 02:33:41;;;;;;;9.45;5.45;;;0.10;99.90;;;;;;5038299;28;20209;-79
2021/03/05 02:36:14;;;;;;;12.75;6.30;;;0.10;99.90;;;;;;5070028;28;20172;-79
2021/03/05 02:38:53;;;;;;;8.45;5.30;;;0.10;99.90;;;;;;5064712;28;20239;-79
2021/03/05 02:41:22;;;;;;;13.63;6.35;;;0.10;99.90;;;;;;5047936;28;20204;-78
2021/03/05 02:43:53;;;;;;;7.97;5.25;;;0.00;99.90;;;;;;5065722;28;20205;-77
2021/03/05 02:46:25;;;;;;;10.13;4.25;;;0.00;99.90;;;;;;5065832;28;20215;-80
2021/03/05 02:48:59;;;;;;;12.55;6.63;;;-0.10;99.90;;;;;;5045279;28;20204;-81
2021/03/05 02:51:32;;;;;;;13.95;6.40;;;-0.10;99.90;;;;;;5060525;28;20189;-80
2021/03/05 02:54:02;;;;;;;18.10;8.20;;;-0.10;99.90;;;;;;5043536;28;20552;-81
2021/03/05 02:56:35;;;;;;;6.07;3.90;;;-0.10;99.90;;;;;;5043474;28;20232;-81
2021/03/05 02:59:06;;;;;;;5.80;4.25;;;-0.10;99.90;;;;;;5051709;28;20229;-75
2021/03/05 03:01:37;;;;;;;17.77;5.15;;;-0.30;99.90;;;;;;5072063;28;20230;-79
2021/03/05 03:04:10;;;;;;;8.27;5.90;;;-0.30;99.90;;;;;;5054314;28;20184;-76
2021/03/05 03:06:44;;;;;;;11.80;5.80;;;-0.30;99.90;;;;;;5064438;28;20199;-79
2021/03/05 03:09:15;;;;;;;25.50;7.85;;;-0.40;99.90;;;;;;5043444;28;20219;-80
2021/03/05 03:11:47;;;;;;;5.70;3.42;;;-0.40;99.90;;;;;;5044384;28;20246;-80
2021/03/05 03:14:17;;;;;;;21.70;5.40;;;-0.40;99.90;;;;;;5061842;28;20629;-80
2021/03/05 03:16:46;;;;;;;4.22;2.78;;;-0.50;99.90;;;;;;5046363;28;20189;-79
2021/03/05 03:19:20;;;;;;;8.82;4.85;;;-0.50;99.90;;;;;;5049636;28;20243;-76
2021/03/05 03:21:49;;;;;;;4.68;3.90;;;-0.50;99.90;;;;;;5049857;28;20199;-78
2021/03/05 03:24:18;;;;;;;15.68;5.20;;;-0.60;99.90;;;;;;5049993;28;20196;-78
2021/03/05 03:26:46;;;;;;;13.30;8.75;;;-0.60;99.90;;;;;;5049639;28;20197;-78
2021/03/05 03:29:15;;;;;;;9.25;3.97;;;-0.70;99.90;;;;;;5049828;28;20212;-78
2021/03/05 03:31:46;;;;;;;9.35;4.43;;;-0.70;99.90;;;;;;5051516;28;20189;-78
2021/03/05 03:34:17;;;;;;;2.58;2.30;;;-0.70;99.90;;;;;;5055510;28;20204;-78
2021/03/05 03:36:54;;;;;;;4.47;3.28;;;-0.70;99.90;;;;;;5055330;28;20543;-76
2021/03/05 03:39:27;;;;;;;5.50;3.53;;;-0.70;99.90;;;;;;5073852;28;20212;-77
2021/03/05 03:42:05;;;;;;;10.55;4.15;;;-0.80;99.90;;;;;;5052593;28;20195;-80
2021/03/05 03:44:34;;;;;;;7.70;4.18;;;-0.80;99.90;;;;;;5064850;28;20161;-80
2021/03/05 03:47:03;;;;;;;3.78;2.28;;;-0.80;99.90;;;;;;5062791;28;20207;-80
2021/03/05 03:49:38;;;;;;;3.22;1.92;;;-0.90;99.90;;;;;;5051313;28;20242;-80
2021/03/05 03:52:10;;;;;;;3.30;2.10;;;-0.80;99.90;;;;;;5068462;28;20204;-80
2021/03/05 03:54:39;;;;;;;8.50;3.75;;;-0.90;99.90;;;;;;5050347;28;20215;-80
2021/03/05 03:57:12;;;;;;;5.63;3.15;;;-0.90;99.90;;;;;;5051197;28;20192;-78
2021/03/05 03:59:44;;;;;;;13.45;4.47;;;-0.80;99.90;;;;;;5049310;28;20242;-77
2021/03/05 04:06:35;;;;;;;7.65;3.35;;;-0.90;99.90;;;;;;5070335;28;20272;-82
2021/03/05 07:03:21;;;;;;;5.75;3.10;;;-0.30;99.90;;;;;;4843692;29;20210;-80
2021/03/05 07:05:50;;;;;;;6.60;4.05;;;-0.10;99.90;;;;;;4882395;29;20205;-79
2021/03/05 07:08:39;;;;;;;9.02;4.43;;;0.00;99.90;;;;;;4922904;29;20229;-77
2021/03/05 07:11:09;;;;;;;5.57;4.72;;;0.10;99.90;;;;;;4922939;29;20201;-77
2021/03/05 07:13:49;;;;;;;6.85;4.07;;;0.00;99.90;;;;;;4928897;29;20689;-80
2021/03/05 07:16:16;;;;;;;9.30;4.03;;;0.00;99.90;;;;;;4947315;29;20204;-81
2021/03/05 07:18:46;;;;;;;5.20;3.72;;;0.00;99.90;;;;;;4961808;29;20523;-79
2021/03/05 07:21:17;;;;;;;6.00;5.15;;;0.10;99.90;;;;;;4963081;28;20202;-80
2021/03/05 07:23:46;;;;;;;10.85;6.18;;;0.20;99.90;;;;;;5065993;28;20185;-81
2021/03/05 07:26:14;;;;;;;6.55;4.57;;;0.20;99.90;;;;;;5045011;28;20250;-79
2021/03/05 07:28:45;;;;;;;6.53;4.40;;;0.40;99.90;;;;;;5044689;28;20219;-77
2021/03/05 07:31:16;;;;;;;7.60;5.00;;;0.50;99.90;;;;;;5044126;28;20192;-81
2021/03/05 07:33:50;;;;;;;4.32;3.50;;;0.50;99.90;;;;;;5062499;28;20177;-79
2021/03/05 07:36:18;;;;;;;6.05;4.65;;;0.60;99.90;;;;;;5045064;28;20537;-80
2021/03/05 07:38:51;;;;;;;9.52;6.30;;;0.70;99.90;;;;;;5045778;28;20235;-80
2021/03/05 07:41:20;;;;;;;6.50;4.55;;;0.70;99.90;;;;;;5046658;28;20227;-79
2021/03/05 07:43:48;;;;;;;6.00;4.70;;;0.90;99.90;;;;;;5047119;28;20197;-81
2021/03/05 07:46:15;;;;;;;6.20;4.68;;;1.00;99.90;;;;;;5078874;22;20635;-78
2021/03/05 07:48:47;;;;;;;8.27;5.95;;;1.10;99.90;;;;;;5078545;28;20195;-75
2021/03/05 07:51:15;;;;;;;5.32;4.70;;;1.20;99.90;;;;;;5076619;28;20654;-76
2021/03/05 07:53:53;;;;;;;8.25;5.45;;;1.40;99.90;;;;;;5061765;28;20199;-77
2021/03/05 07:56:41;;;;;;;4.80;3.47;;;1.50;99.90;;;;;;5067487;28;20299;-79
2021/03/05 07:59:08;;;;;;;2.92;2.72;;;1.50;99.90;;;;;;5065116;28;20200;-79
2021/03/05 08:01:57;;;;;;;3.88;3.55;;;1.50;99.90;;;;;;5067310;28;20207;-80
2021/03/05 08:05:07;;;;;;;3.85;2.65;;;1.50;99.90;;;;;;5086857;28;20215;-81
2021/03/05 08:07:36;;;;;;;5.07;3.78;;;1.60;99.90;;;;;;5088781;28;20195;-80
2021/03/05 08:10:05;;;;;;;4.60;2.97;;;1.80;99.90;;;;;;5091065;28;20250;-81
2021/03/05 08:12:38;;;;;;;6.20;4.10;;;2.00;99.90;;;;;;5089479;28;20188;-80
2021/03/05 08:15:25;;;;;;;4.63;3.35;;;2.00;99.90;;;;;;5086712;28;20242;-79
2021/03/05 08:17:54;;;;;;;6.43;4.00;;;2.10;99.90;;;;;;5090074;28;20263;-81
2021/03/05 08:20:50;;;;;;;6.47;3.17;;;2.20;99.90;;;;;;5087207;28;20196;-80
2021/03/05 08:23:17;;;;;;;8.18;3.97;;;2.20;99.90;;;;;;5086826;28;20192;-79
2021/03/05 08:25:50;;;;;;;4.57;3.60;;;2.20;99.90;;;;;;5085849;28;20208;-79
2021/03/05 08:28:46;;;;;;;3.90;2.72;;;2.40;99.90;;;;;;5085838;28;20165;-78
2021/03/05 08:31:37;;;;;;;3.95;3.55;;;2.50;99.90;;;;;;5086909;28;20181;-80
2021/03/05 08:34:27;;;;;;;4.03;3.53;;;2.90;99.90;;;;;;5075708;28;20208;-76
2021/03/05 08:36:56;;;;;;;5.45;3.38;;;3.50;99.90;;;;;;5079541;28;20200;-75
2021/03/05 08:39:28;;;;;;;5.53;3.65;;;4.00;1.00;;;;;;5079626;28;20686;-75
2021/03/05 08:42:33;;;;;;;5.47;3.05;;;4.10;99.90;;;;;;5088701;28;20200;-77
2021/03/05 08:45:15;;;;;;;6.28;5.68;;;3.70;99.90;;;;;;5076928;28;20585;-78
2021/03/05 08:47:44;;;;;;;4.15;3.00;;;3.40;1.00;;;;;;5093523;28;20194;-78
2021/03/05 08:50:13;;;;;;;6.88;5.10;;;3.30;1.00;;;;;;5093766;28;20202;-80
2021/03/05 08:52:44;;;;;;;5.20;3.55;;;3.40;1.00;;;;;;5094923;28;20172;-80
2021/03/05 08:55:13;;;;;;;6.25;3.53;;;3.30;99.90;;;;;;5091422;28;20208;-78
2021/03/05 08:57:44;;;;;;;6.57;3.47;;;3.30;99.90;;;;;;5091608;28;20367;-80
2021/03/05 09:00:15;;;;;;;8.25;3.40;;;3.20;99.90;;;;;;5090145;28;20210;-79
2021/03/05 09:02:43;;;;;;;9.45;5.25;;;3.10;1.00;;;;;;5090011;28;20200;-79
2021/03/05 09:05:13;;;;;;;7.10;4.47;;;2.90;1.00;;;;;;5085054;28;20212;-79
2021/03/05 09:07:50;;;;;;;5.72;4.55;;;2.70;1.00;;;;;;5070876;28;20193;-81
2021/03/05 09:10:18;;;;;;;4.40;2.67;;;2.70;1.00;;;;;;5064895;28;20196;-79
2021/03/05 09:12:56;;;;;;;3.95;2.88;;;2.70;1.00;;;;;;5067297;28;20188;-79
2021/03/05 09:15:28;;;;;;;5.72;3.92;;;2.80;1.00;;;;;;5068937;28;20234;-80
2021/03/05 09:17:57;;;;;;;5.57;4.97;;;2.80;1.00;;;;;;5063265;28;20177;-79
2021/03/05 09:20:35;;;;;;;12.38;5.30;;;3.00;1.00;;;;;;5058752;28;20687;-77
2021/03/05 09:23:31;;;;;;;6.95;5.18;;;3.10;99.90;;;;;;5062052;28;20259;-78
2021/03/05 09:26:01;;;;;;;9.07;4.78;;;3.00;1.00;;;;;;5061808;28;20235;-76
2021/03/05 09:28:35;;;;;;;10.65;5.45;;;3.00;1.00;;;;;;5068389;28;20252;-77
2021/03/05 09:31:03;;;;;;;6.07;4.15;;;3.00;99.90;;;;;;5071029;28;20208;-76
2021/03/05 09:33:32;;;;;;;4.53;3.25;;;3.20;1.00;;;;;;5070313;28;20193;-77
2021/03/05 09:36:02;;;;;;;42.60;28.75;;;3.30;99.90;;;;;;5071141;28;20201;-77
2021/03/05 09:38:30;;;;;;;8.15;6.10;;;3.20;99.90;;;;;;5070695;28;20223;-77
2021/03/05 09:41:12;;;;;;;51.55;47.05;;;3.20;99.90;;;;;;5071251;28;20203;-77
2021/03/05 09:43:40;;;;;;;5.32;3.90;;;3.20;99.90;;;;;;5070162;28;20188;-77
2021/03/05 09:46:21;;;;;;;4.35;3.00;;;3.10;99.90;;;;;;5068540;28;20216;-76
2021/03/05 09:48:51;;;;;;;17.60;16.17;;;2.80;99.90;;;;;;5069416;28;20169;-76
2021/03/05 09:51:19;;;;;;;1.88;1.70;;;2.90;99.90;;;;;;5072667;28;20248;-76
2021/03/05 09:53:54;;;;;;;2.85;2.20;;;2.90;99.90;;;;;;5069683;28;20256;-76
2021/03/05 09:56:24;;;;;;;8.52;6.68;;;2.90;99.90;;;;;;5067505;28;20224;-76
2021/03/05 09:58:54;;;;;;;2.75;2.30;;;2.80;99.90;;;;;;5066822;28;20220;-76
2021/03/05 10:01:22;;;;;;;4.22;2.03;;;3.00;99.90;;;;;;5063298;28;20181;-76
2021/03/05 10:03:54;;;;;;;3.33;3.03;;;3.00;99.90;;;;;;5062871;28;20180;-77
2021/03/05 10:06:22;;;;;;;2.42;2.25;;;3.00;99.90;;;;;;5060381;28;20223;-76
2021/03/05 10:09:02;;;;;;;1.83;1.60;;;3.00;99.90;;;;;;5057296;28;20188;-76
2021/03/05 10:11:33;;;;;;;2.60;1.95;;;3.10;99.90;;;;;;5057310;28;20177;-76
2021/03/05 10:14:02;;;;;;;1.80;1.45;;;3.30;99.90;;;;;;5061060;28;20202;-76
2021/03/05 10:16:32;;;;;;;2.28;1.67;;;3.30;1.00;;;;;;5064362;28;20215;-76
2021/03/05 10:19:05;;;;;;;2.45;2.25;;;3.50;99.90;;;;;;5065780;28;20335;-77
2021/03/05 10:21:39;;;;;;;4.00;2.80;;;3.70;99.90;;;;;;5055511;28;20188;-76
2021/03/05 10:24:09;;;;;;;2.80;1.77;;;3.80;1.00;;;;;;5061522;28;20249;-77
2021/03/05 10:26:37;;;;;;;4.43;1.80;;;3.90;1.00;;;;;;5058287;28;20204;-78
2021/03/05 10:29:06;;;;;;;1.73;1.20;;;3.70;1.00;;;;;;5057022;28;20267;-77
2021/03/05 10:31:48;;;;;;;5.75;1.30;;;3.90;1.00;;;;;;5055825;28;20189;-75
2021/03/05 10:34:23;;;;;;;2.25;1.95;;;3.90;99.90;;;;;;5053996;28;20202;-75
2021/03/05 10:36:52;;;;;;;3.13;2.00;;;3.90;1.00;;;;;;5060462;28;20208;-79
2021/03/05 10:39:20;;;;;;;2.15;1.95;;;4.10;1.00;;;;;;5059589;28;20222;-79
2021/03/05 10:41:58;;;;;;;1.88;1.27;;;4.20;1.00;;;;;;5058974;28;20649;-80
2021/03/05 10:44:27;;;;;;;2.30;1.90;;;4.00;1.00;;;;;;5059969;28;20177;-80
2021/03/05 10:46:57;;;;;;;1.63;1.30;;;3.90;99.90;;;;;;5057283;28;20644;-80
2021/03/05 10:49:24;;;;;;;1.58;1.35;;;3.80;1.00;;;;;;5058264;28;20264;-79
2021/03/05 10:51:52;;;;;;;1.40;1.30;;;4.10;99.90;;;;;;5061627;28;20237;-80
2021/03/05 10:54:21;;;;;;;2.22;1.50;;;4.10;99.90;;;;;;5060662;28;20180;-77
2021/03/05 10:56:49;;;;;;;3.05;1.73;;;4.20;99.90;;;;;;5053813;28;20217;-76
2021/03/05 10:59:17;;;;;;;1.50;1.27;;;4.30;98.30;;;;;;5056405;28;20204;-80
2021/03/05 11:01:45;;;;;;;1.75;0.90;;;4.40;95.10;;;;;;5053641;28;20185;-75
2021/03/05 11:04:13;;;;;;;2.20;1.75;;;4.40;92.60;;;;;;5052158;28;20240;-75
2021/03/05 11:06:40;;;;;;;3.08;1.55;;;4.40;89.70;;;;;;5052157;28;20239;-74
2021/03/05 11:09:08;;;;;;;4.53;2.55;;;4.30;86.40;;;;;;5052760;28;20209;-76
2021/03/05 11:11:36;;;;;;;1.50;1.40;;;4.50;86.60;;;;;;5052222;28;20181;-76
2021/03/05 11:14:04;;;;;;;4.07;1.55;;;4.80;82.90;;;;;;5053612;28;20203;-77
2021/03/05 11:16:31;;;;;;;1.63;1.52;;;4.80;80.40;;;;;;5056967;28;20659;-77
2021/03/05 11:18:59;;;;;;;1.52;1.30;;;4.90;80.70;;;;;;5054376;28;20274;-76
2021/03/05 11:21:27;;;;;;;3.08;1.60;;;5.10;77.80;;;;;;5052317;28;20193;-77
2021/03/05 11:23:56;;;;;;;2.65;1.60;;;5.20;70.90;;;;;;5057658;28;20180;-78
2021/03/05 11:26:24;;;;;;;1.23;0.93;;;5.10;65.80;;;;;;5074587;28;20257;-77
2021/03/05 11:28:53;;;;;;;7.47;2.75;;;5.10;61.20;;;;;;5055615;28;20195;-78
2021/03/05 11:31:21;;;;;;;2.35;1.42;;;5.20;58.60;;;;;;5056024;28;20516;-75
2021/03/05 11:33:49;;;;;;;2.17;1.65;;;5.10;57.60;;;;;;5052802;28;20220;-76
2021/03/05 11:36:19;;;;;;;2.03;1.00;;;5.10;55.70;;;;;;5033603;28;20214;-77
2021/03/05 11:38:48;;;;;;;2.75;1.42;;;5.10;53.70;;;;;;5038463;28;20208;-77
2021/03/05 11:41:16;;;;;;;1.90;1.00;;;5.10;51.00;;;;;;5038953;28;20193;-78
2021/03/05 11:43:46;;;;;;;0.80;0.57;;;5.00;47.50;;;;;;5034265;28;20197;-77
2021/03/05 11:46:15;;;;;;;3.72;1.13;;;4.80;44.70;;;;;;5033585;28;20228;-78
2021/03/05 11:48:42;;;;;;;1.30;1.20;;;4.90;43.30;;;;;;5035436;28;20205;-80
2021/03/05 11:51:10;;;;;;;1.15;0.95;;;5.00;41.90;;;;;;5033768;28;20193;-74
2021/03/05 11:53:38;;;;;;;2.88;0.98;;;5.10;41.10;;;;;;5033498;28;20606;-75
2021/03/05 11:56:06;;;;;;;1.10;0.70;;;5.10;39.10;;;;;;5035315;28;20209;-75
2021/03/05 11:58:34;;;;;;;2.67;1.23;;;5.10;36.30;;;;;;5036461;28;20212;-74
2021/03/05 12:01:02;;;;;;;1.48;0.98;;;5.10;34.50;;;;;;5063690;28;20200;-76
2021/03/05 12:03:31;;;;;;;1.00;0.70;;;5.10;32.90;;;;;;5075975;28;20685;-75
2021/03/05 12:06:00;;;;;;;1.00;0.70;;;5.10;31.10;;;;;;5074644;28;20220;-75
2021/03/05 12:08:27;;;;;;;1.25;0.85;;;5.30;30.00;;;;;;5076193;28;20188;-75
2021/03/05 12:10:54;;;;;;;1.08;0.93;;;5.40;29.80;;;;;;5076070;28;20249;-76
2021/03/05 12:13:21;;;;;;;0.80;0.68;;;5.50;28.40;;;;;;5076634;28;20188;-76
2021/03/05 12:15:51;;;;;;;1.27;0.70;;;5.40;27.00;;;;;;5076724;28;20214;-77
2021/03/05 12:18:18;;;;;;;1.13;0.60;;;5.30;25.50;;;;;;5077058;28;20198;-78
2021/03/05 12:20:46;;;;;;;1.65;0.93;;;5.40;25.20;;;;;;5076501;28;20543;-77
2021/03/05 12:23:13;;;;;;;0.95;0.60;;;5.40;23.70;;;;;;5076056;28;20246;-76
2021/03/05 12:25:40;;;;;;;1.00;0.80;;;5.30;22.80;;;;;;5076015;28;20212;-75
2021/03/05 12:28:07;;;;;;;2.25;0.95;;;5.40;29.70;;;;;;5075215;28;20200;-75
2021/03/05 12:30:35;;;;;;;1.33;0.90;;;5.50;20.80;;;;;;5076640;28;20187;-76
2021/03/05 12:33:03;;;;;;;1.88;1.30;;;5.40;20.10;;;;;;5076574;28;20230;-75
2021/03/05 12:35:31;;;;;;;1.10;0.80;;;5.50;20.10;;;;;;5076241;28;20211;-75
2021/03/05 12:37:59;;;;;;;2.08;0.60;;;5.70;19.30;;;;;;5076405;28;20173;-75
2021/03/05 12:40:26;;;;;;;1.35;1.23;;;5.50;16.70;;;;;;5075955;28;20203;-77
2021/03/05 12:42:56;;;;;;;2.03;0.80;;;5.50;15.50;;;;;;5076248;28;20198;-74
2021/03/05 12:45:24;;;;;;;1.48;0.90;;;5.50;15.10;;;;;;5075769;28;20709;-76
2021/03/05 12:47:51;;;;;;;1.35;0.93;;;5.70;14.30;;;;;;5075639;28;20199;-75
2021/03/05 12:50:20;;;;;;;4.10;1.58;;;5.80;12.40;;;;;;5075493;28;20184;-75
2021/03/05 12:52:47;;;;;;;1.10;0.60;;;5.70;11.40;;;;;;5074804;28;20184;-75
2021/03/05 12:55:16;;;;;;;2.65;0.90;;;5.90;10.60;;;;;;5073132;28;20585;-76
2021/03/05 12:57:43;;;;;;;6.80;1.20;;;6.00;9.70;;;;;;5074833;28;20552;-75
2021/03/05 13:00:12;;;;;;;1.42;0.93;;;6.00;8.80;;;;;;5075470;28;20204;-76
2021/03/05 13:02:39;;;;;;;0.95;0.70;;;5.90;7.80;;;;;;5077643;28;20280;-75
2021/03/05 13:05:07;;;;;;;1.23;0.80;;;5.90;6.90;;;;;;5076450;28;20290;-75
2021/03/05 13:07:40;;;;;;;2.88;0.90;;;5.90;6.30;;;;;;5077440;28;20222;-76
2021/03/05 13:10:09;;;;;;;0.80;0.57;;;6.00;5.80;;;;;;5077769;28;20187;-76
2021/03/05 13:12:37;;;;;;;1.80;1.63;;;6.10;4.60;;;;;;5075559;28;20192;-75
2021/03/05 13:15:17;;;;;;;3.38;1.02;;;5.80;2.10;;;;;;5074368;28;20228;-74
2021/03/05 13:17:45;;;;;;;2.40;0.82;;;5.80;1.20;;;;;;5074727;28;20180;-75
2021/03/05 13:20:13;;;;;;;1.50;1.15;;;5.90;1.00;;;;;;5075238;28;20208;-76
2021/03/05 13:22:40;;;;;;;1.25;0.80;;;6.10;1.00;;;;;;5075972;28;20196;-76
2021/03/05 13:25:09;;;;;;;2.45;1.50;;;6.20;1.00;;;;;;5074963;28;20204;-75
2021/03/05 13:27:37;;;;;;;1.45;0.90;;;6.10;1.00;;;;;;5075101;28;20192;-76
2021/03/05 13:30:06;;;;;;;4.05;3.42;;;6.00;1.00;;;;;;5075758;28;20677;-74
2021/03/05 13:32:33;;;;;;;3.05;1.17;;;6.10;1.00;;;;;;5075169;28;20188;-75
2021/03/05 13:35:00;;;;;;;1.20;0.90;;;6.20;1.00;;;;;;5075097;28;20188;-77
2021/03/05 13:37:27;;;;;;;2.58;1.02;;;6.40;1.00;;;;;;5064551;28;20192;-76
2021/03/05 13:39:54;;;;;;;3.65;0.93;;;6.30;1.00;;;;;;5056497;28;20204;-76
2021/03/05 13:42:22;;;;;;;5.47;1.67;;;6.20;1.00;;;;;;5055340;28;20185;-76
2021/03/05 13:44:50;;;;;;;1.20;0.70;;;6.10;1.00;;;;;;5057040;28;20701;-77
2021/03/05 13:47:18;;;;;;;1.17;0.88;;;6.10;1.00;;;;;;5107511;22;20230;-81
2021/03/05 13:49:46;;;;;;;1.00;0.65;;;6.20;1.00;;;;;;5107052;28;20199;-78
2021/03/05 13:52:13;;;;;;;4.18;2.05;;;6.20;1.00;;;;;;5102401;28;20183;-79
2021/03/05 13:54:40;;;;;;;1.38;0.80;;;6.20;1.00;;;;;;5102767;28;20249;-78
2021/03/05 13:57:08;;;;;;;2.28;1.10;;;6.30;1.00;;;;;;5088302;28;20216;-78
2021/03/05 13:59:36;;;;;;;0.88;0.60;;;6.40;1.00;;;;;;5083496;28;20226;-79
2021/03/05 14:02:04;;;;;;;1.17;0.75;;;6.50;1.00;;;;;;5088298;28;20199;-83
2021/03/05 14:04:32;;;;;;;8.07;2.88;;;6.60;1.00;;;;;;5092113;28;20251;-82
2021/03/05 14:07:03;;;;;;;8.45;2.72;;;6.50;1.00;;;;;;5095028;28;20211;-83
2021/03/05 14:09:30;;;;;;;4.28;2.15;;;6.30;1.00;;;;;;5093349;28;20173;-82
2021/03/05 14:11:58;;;;;;;1.45;1.02;;;6.10;1.00;;;;;;5089372;28;20196;-81
2021/03/05 14:14:25;;;;;;;4.05;3.08;;;6.20;1.00;;;;;;5082304;28;20220;-81
2021/03/05 14:16:53;;;;;;;3.45;1.52;;;6.20;1.00;;;;;;5079971;28;20223;-80
2021/03/05 14:19:22;;;;;;;1.15;1.02;;;6.30;1.00;;;;;;5082866;28;20210;-79
2021/03/05 14:21:50;;;;;;;3.10;0.70;;;6.40;1.00;;;;;;5078367;28;20694;-78
2021/03/05 14:24:18;;;;;;;5.05;1.20;;;6.70;1.00;;;;;;5083685;28;20192;-82
2021/03/05 14:26:47;;;;;;;2.42;1.00;;;6.70;1.00;;;;;;5081033;28;20247;-79
2021/03/05 14:29:17;;;;;;;5.10;2.40;;;6.70;1.00;;;;;;5082358;28;20646;-80
2021/03/05 14:31:45;;;;;;;1.08;0.82;;;6.60;1.00;;;;;;5080405;28;20226;-82
2021/03/05 14:34:14;;;;;;;1.58;0.98;;;6.80;1.00;;;;;;5078377;28;20222;-81
2021/03/05 14:36:43;;;;;;;8.82;2.17;;;6.50;1.00;;;;;;5080088;28;20705;-76
2021/03/05 14:39:10;;;;;;;1.33;0.60;;;6.30;1.00;;;;;;5078934;28;20207;-79
2021/03/05 14:41:38;;;;;;;1.95;0.90;;;6.30;1.00;;;;;;5081023;28;20191;-76
2021/03/05 14:44:06;;;;;;;1.65;1.05;;;6.40;1.00;;;;;;5081222;28;20234;-76
2021/03/05 14:46:36;;;;;;;0.95;0.80;;;6.50;1.00;;;;;;5079850;28;20215;-77
2021/03/05 14:49:06;;;;;;;1.45;1.08;;;6.70;1.00;;;;;;5076801;28;20192;-78
2021/03/05 14:51:33;;;;;;;2.45;1.50;;;6.80;1.00;;;;;;5075104;28;20202;-77
2021/03/05 14:54:02;;;;;;;2.47;1.35;;;6.90;1.00;;;;;;5077713;28;20592;-78
2021/03/05 14:56:29;;;;;;;1.20;0.88;;;7.20;1.00;;;;;;5079121;28;20295;-79
2021/03/05 14:58:57;;;;;;;1.40;1.17;;;7.40;1.00;;;;;;5078643;28;20183;-80
2021/03/05 15:01:24;;;;;;;1.00;0.70;;;7.20;1.00;;;;;;5079265;28;20215;-77
2021/03/05 15:03:52;;;;;;;2.13;0.65;;;7.10;1.00;;;;;;5080482;28;20168;-79
2021/03/05 15:06:25;;;;;;;1.35;0.70;;;7.10;1.00;;;;;;5081325;28;20242;-79
2021/03/05 15:08:52;;;;;;;1.38;0.82;;;7.10;1.00;;;;;;5077091;28;20291;-78
2021/03/05 15:11:21;;;;;;;1.40;0.90;;;7.00;1.00;;;;;;5079250;28;20185;-77
2021/03/05 15:13:49;;;;;;;1.15;0.68;;;6.80;1.00;;;;;;5079539;28;20212;-77
2021/03/05 15:16:16;;;;;;;3.00;0.98;;;6.70;1.00;;;;;;5078160;28;20208;-77
2021/03/05 15:18:44;;;;;;;5.50;1.45;;;6.60;1.00;;;;;;5082848;28;20192;-78
2021/03/05 15:21:11;;;;;;;0.90;0.75;;;6.70;1.00;;;;;;5077099;28;20219;-78
2021/03/05 15:23:39;;;;;;;8.88;1.15;;;6.80;1.00;;;;;;5078440;28;20188;-79
2021/03/05 15:26:06;;;;;;;1.20;0.77;;;6.70;1.00;;;;;;5075995;28;20302;-79
2021/03/05 15:28:34;;;;;;;2.35;0.60;;;6.70;1.00;;;;;;5079428;28;20258;-78
2021/03/05 15:31:01;;;;;;;1.52;0.73;;;6.70;1.00;;;;;;5080493;28;20222;-78
2021/03/05 15:33:29;;;;;;;0.85;0.57;;;6.90;1.00;;;;;;5079391;28;20203;-78
2021/03/05 15:35:57;;;;;;;2.85;1.13;;;6.80;1.00;;;;;;5078554;28;20242;-78
2021/03/05 15:38:24;;;;;;;1.45;0.70;;;6.80;1.00;;;;;;5078257;28;20251;-77
2021/03/05 15:40:52;;;;;;;0.90;0.60;;;6.70;1.00;;;;;;5078040;28;20200;-77
2021/03/05 15:43:19;;;;;;;3.78;1.10;;;6.60;1.00;;;;;;5077688;28;20200;-78
2021/03/05 15:45:47;;;;;;;4.63;1.60;;;6.30;1.00;;;;;;5084310;28;20215;-78
2021/03/05 15:48:19;;;;;;;1.98;1.52;;;6.20;1.00;;;;;;5090774;28;20192;-77
2021/03/05 15:50:47;;;;;;;1.73;0.80;;;6.40;1.00;;;;;;5080846;28;20180;-78
2021/03/05 15:53:14;;;;;;;2.17;1.05;;;6.40;1.00;;;;;;5085673;28;20187;-78
2021/03/05 15:55:41;;;;;;;0.93;0.63;;;6.30;1.00;;;;;;5100044;28;20207;-78
2021/03/05 15:58:09;;;;;;;1.10;0.80;;;6.10;1.00;;;;;;5099930;28;20176;-77
2021/03/05 16:00:36;;;;;;;0.90;0.60;;;6.00;1.00;;;;;;5097179;28;20221;-78
2021/03/05 16:03:06;;;;;;;1.60;1.00;;;5.80;1.00;;;;;;5101291;28;20195;-78
2021/03/05 16:05:33;;;;;;;1.10;0.70;;;5.70;1.00;;;;;;5102632;28;20728;-79
2021/03/05 16:08:03;;;;;;;1.40;0.95;;;5.70;1.00;;;;;;5099348;28;20274;-77
2021/03/05 16:10:31;;;;;;;2.35;1.17;;;5.60;1.00;;;;;;5097626;28;20188;-78
2021/03/05 16:13:04;;;;;;;2.42;1.42;;;5.50;1.00;;;;;;5100866;28;20186;-78
2021/03/05 16:15:31;;;;;;;1.85;0.90;;;5.50;1.00;;;;;;5102453;28;20548;-76
2021/03/05 16:17:58;;;;;;;2.00;0.80;;;5.40;1.00;;;;;;5100609;28;20231;-79